Time;durP1;ratioP1;P1;durP2;ratioP2;P2;SDS_P1;SDS_P2;PMS_P1;PMS_P2;Temp;Humidity;BMP_temperature;BMP_pressure;BME280_temperature;BME280_humidity;BME280_pressure;Samples;Min_cycle;Max_cycle;Signal;HPM_P1;HPM_P2
2021/08/27 00:00:35;;;;;;;4.40;2.90;;;;;;;;;;5092405;28;20456;-79
2021/08/27 00:03:02;;;;;;;3.30;2.30;;;;;;;;;;5092123;28;20450;-78
2021/08/27 00:05:29;;;;;;;3.80;2.33;;;;;;;;;;5092262;28;20439;-79
2021/08/27 00:07:58;;;;;;;5.53;2.43;;;;;;;;;;5106272;28;20486;-78
2021/08/27 00:10:25;;;;;;;6.77;2.40;;;;;;;;;;5115100;28;20553;-78
2021/08/27 00:12:53;;;;;;;5.10;2.20;;;;;;;;;;5115041;28;20790;-77
2021/08/27 00:15:20;;;;;;;3.30;2.10;;;;;;;;;;5113873;28;20920;-79
2021/08/27 00:17:47;;;;;;;2.67;1.80;;;;;;;;;;5103763;28;20426;-78
2021/08/27 00:20:14;;;;;;;7.50;2.20;;;;;;;;;;5105949;28;20457;-79
2021/08/27 00:22:41;;;;;;;5.60;2.50;;;;;;;;;;5112047;28;20788;-78
2021/08/27 00:25:10;;;;;;;5.17;2.30;;;;;;;;;;5112192;28;20443;-79
2021/08/27 00:27:38;;;;;;;7.83;2.17;;;;;;;;;;5112223;28;20481;-78
2021/08/27 00:30:05;;;;;;;3.73;2.50;;;;;;;;;;5113385;28;20482;-77
2021/08/27 00:32:32;;;;;;;2.83;1.70;;;;;;;;;;5114551;28;20445;-78
2021/08/27 00:35:03;;;;;;;3.80;1.83;;;;;;;;;;5114247;28;20438;-79
2021/08/27 00:37:31;;;;;;;5.97;1.93;;;;;;;;;;5111802;28;20469;-80
2021/08/27 00:39:58;;;;;;;2.83;1.60;;;;;;;;;;5099493;28;20434;-78
2021/08/27 00:42:26;;;;;;;2.50;1.87;;;;;;;;;;5096439;28;20443;-77
2021/08/27 00:44:53;;;;;;;5.77;1.73;;;;;;;;;;5091458;28;20443;-80
2021/08/27 00:47:21;;;;;;;2.43;1.90;;;;;;;;;;5091422;28;20474;-79
2021/08/27 00:49:48;;;;;;;8.53;1.83;;;;;;;;;;5091430;28;20446;-79
2021/08/27 00:52:16;;;;;;;4.10;1.80;;;;;;;;;;5107834;28;20447;-78
2021/08/27 00:54:46;;;;;;;4.93;2.27;;;;;;;;;;5114156;28;20536;-79
2021/08/27 00:57:13;;;;;;;4.40;2.03;;;;;;;;;;5113972;28;20450;-79
2021/08/27 00:59:41;;;;;;;3.13;1.83;;;;;;;;;;5111906;28;20463;-78
2021/08/27 01:02:09;;;;;;;5.63;2.60;;;;;;;;;;5098972;28;20476;-78
2021/08/27 01:04:36;;;;;;;5.20;2.43;;;;;;;;;;5106743;28;20438;-78
2021/08/27 01:07:06;;;;;;;6.17;2.67;;;;;;;;;;5111616;28;20442;-78
2021/08/27 01:09:35;;;;;;;4.07;1.87;;;;;;;;;;5111632;28;20434;-79
2021/08/27 01:12:04;;;;;;;4.67;2.20;;;;;;;;;;5111548;28;20454;-79
2021/08/27 01:14:34;;;;;;;10.70;2.63;;;;;;;;;;5112955;28;20458;-79
2021/08/27 01:17:04;;;;;;;5.43;2.27;;;;;;;;;;5113585;28;20438;-79
2021/08/27 01:19:45;;;;;;;4.83;2.37;;;;;;;;;;5113857;28;20444;-79
2021/08/27 01:22:25;;;;;;;2.87;2.10;;;;;;;;;;5093464;28;20434;-78
2021/08/27 01:24:53;;;;;;;10.13;2.37;;;;;;;;;;5098892;28;20434;-79
2021/08/27 01:27:21;;;;;;;6.80;2.37;;;;;;;;;;5091786;28;20479;-79
2021/08/27 01:29:51;;;;;;;6.70;2.70;;;;;;;;;;5093494;28;20534;-79
2021/08/27 01:32:25;;;;;;;5.20;2.30;;;;;;;;;;5095253;28;20446;-78
2021/08/27 01:34:54;;;;;;;5.77;2.40;;;;;;;;;;5079696;28;20447;-79
2021/08/27 01:37:23;;;;;;;6.70;1.87;;;;;;;;;;5117286;28;20470;-79
2021/08/27 01:39:52;;;;;;;5.33;3.00;;;;;;;;;;5099596;28;20969;-79
2021/08/27 01:42:21;;;;;;;10.73;2.30;;;;;;;;;;5117593;28;20461;-77
2021/08/27 01:44:49;;;;;;;3.50;2.50;;;;;;;;;;5110824;28;20434;-79
2021/08/27 01:47:18;;;;;;;4.87;2.60;;;;;;;;;;5103324;28;20934;-79
2021/08/27 01:49:46;;;;;;;8.90;2.93;;;;;;;;;;5114966;28;20445;-80
2021/08/27 01:52:15;;;;;;;4.30;2.40;;;;;;;;;;5115456;28;20445;-77
2021/08/27 01:54:43;;;;;;;7.87;2.47;;;;;;;;;;5097240;28;20438;-79
2021/08/27 01:57:11;;;;;;;9.80;2.73;;;;;;;;;;5115464;28;20450;-79
2021/08/27 01:59:40;;;;;;;5.57;2.33;;;;;;;;;;5117266;28;20444;-79
2021/08/27 02:02:07;;;;;;;5.83;2.43;;;;;;;;;;5117005;28;20448;-79
2021/08/27 02:04:36;;;;;;;4.37;2.33;;;;;;;;;;5116904;28;20438;-79
2021/08/27 02:07:04;;;;;;;4.00;2.10;;;;;;;;;;5109718;28;20443;-78
2021/08/27 02:09:33;;;;;;;6.47;2.13;;;;;;;;;;5105484;28;20426;-80
2021/08/27 02:12:01;;;;;;;5.90;2.47;;;;;;;;;;5093542;28;20451;-79
2021/08/27 02:14:28;;;;;;;4.50;2.60;;;;;;;;;;5094158;28;20866;-78
2021/08/27 02:16:55;;;;;;;4.00;2.47;;;;;;;;;;5094498;28;20439;-79
2021/08/27 02:19:23;;;;;;;10.23;2.70;;;;;;;;;;5100395;28;20454;-79
2021/08/27 02:21:52;;;;;;;2.97;2.23;;;;;;;;;;5116824;28;20549;-79
2021/08/27 02:24:20;;;;;;;6.17;2.63;;;;;;;;;;5116817;28;20810;-78
2021/08/27 02:26:50;;;;;;;5.53;2.57;;;;;;;;;;5116815;28;20438;-79
2021/08/27 02:29:18;;;;;;;4.97;2.83;;;;;;;;;;5108211;28;20479;-78
2021/08/27 02:31:46;;;;;;;10.00;2.50;;;;;;;;;;5104329;28;20455;-79
2021/08/27 02:34:15;;;;;;;8.30;2.70;;;;;;;;;;5113585;28;20445;-79
2021/08/27 02:36:43;;;;;;;6.17;2.60;;;;;;;;;;5113841;28;20497;-79
2021/08/27 02:39:11;;;;;;;4.20;2.60;;;;;;;;;;5114649;28;20435;-80
2021/08/27 02:41:38;;;;;;;4.20;2.23;;;;;;;;;;5114575;28;20480;-79
2021/08/27 02:44:07;;;;;;;8.10;2.37;;;;;;;;;;5116351;28;20435;-79
2021/08/27 02:46:34;;;;;;;5.73;2.60;;;;;;;;;;5116399;28;20460;-80
2021/08/27 02:49:01;;;;;;;3.43;2.00;;;;;;;;;;5116290;28;20492;-80
2021/08/27 02:51:32;;;;;;;5.83;2.70;;;;;;;;;;5107603;28;20455;-79
2021/08/27 02:54:02;;;;;;;6.30;2.23;;;;;;;;;;5104715;28;20435;-79
2021/08/27 02:56:32;;;;;;;5.03;2.30;;;;;;;;;;5113661;28;20443;-79
2021/08/27 02:59:00;;;;;;;6.60;2.50;;;;;;;;;;5113502;28;20449;-80
2021/08/27 03:01:37;;;;;;;7.03;2.40;;;;;;;;;;5113932;28;20469;-79
2021/08/27 03:04:06;;;;;;;4.37;2.30;;;;;;;;;;5114745;28;20456;-79
2021/08/27 03:06:38;;;;;;;6.77;2.60;;;;;;;;;;5115969;28;20442;-78
2021/08/27 03:09:08;;;;;;;4.63;2.20;;;;;;;;;;5115719;28;20482;-79
2021/08/27 03:11:39;;;;;;;3.80;1.83;;;;;;;;;;5097575;28;20519;-79
2021/08/27 03:14:09;;;;;;;9.10;3.23;;;;;;;;;;5101030;28;20423;-79
2021/08/27 03:16:39;;;;;;;4.60;2.20;;;;;;;;;;5098870;28;20966;-79
2021/08/27 03:19:09;;;;;;;8.50;3.20;;;;;;;;;;5093190;28;20674;-79
2021/08/27 03:21:38;;;;;;;5.40;3.10;;;;;;;;;;5092726;28;20470;-78
2021/08/27 03:24:12;;;;;;;10.97;3.20;;;;;;;;;;5093024;28;20444;-79
2021/08/27 03:26:40;;;;;;;6.57;3.70;;;;;;;;;;5109859;28;20817;-79
2021/08/27 03:29:08;;;;;;;7.23;2.70;;;;;;;;;;5115546;28;20493;-79
2021/08/27 03:31:38;;;;;;;7.93;2.63;;;;;;;;;;5115436;28;20462;-79
2021/08/27 03:34:06;;;;;;;4.97;2.30;;;;;;;;;;5112909;28;20431;-79
2021/08/27 03:36:33;;;;;;;6.57;2.37;;;;;;;;;;5104341;28;20466;-79
2021/08/27 03:39:01;;;;;;;7.33;3.00;;;;;;;;;;5089135;28;20489;-80
2021/08/27 03:41:31;;;;;;;4.53;2.40;;;;;;;;;;5094916;28;20556;-79
2021/08/27 03:43:59;;;;;;;6.73;2.10;;;;;;;;;;5113100;28;20438;-79
2021/08/27 03:46:27;;;;;;;4.60;2.43;;;;;;;;;;5094864;28;20932;-79
2021/08/27 03:48:56;;;;;;;5.17;2.03;;;;;;;;;;5114096;28;20481;-79
2021/08/27 03:51:24;;;;;;;8.97;2.50;;;;;;;;;;5114538;28;20450;-79
2021/08/27 03:53:52;;;;;;;4.60;1.77;;;;;;;;;;5115201;28;20442;-79
2021/08/27 03:56:19;;;;;;;4.10;2.40;;;;;;;;;;5112090;28;20427;-79
2021/08/27 03:58:47;;;;;;;4.13;2.00;;;;;;;;;;5104122;28;20438;-80
2021/08/27 04:01:15;;;;;;;5.90;2.67;;;;;;;;;;5108386;28;20472;-79
2021/08/27 04:03:42;;;;;;;6.13;2.50;;;;;;;;;;5094477;28;20929;-79
2021/08/27 04:06:11;;;;;;;4.43;1.90;;;;;;;;;;5112809;28;20439;-79
2021/08/27 04:08:39;;;;;;;4.53;2.10;;;;;;;;;;5112752;28;20589;-79
2021/08/27 04:11:07;;;;;;;3.93;1.80;;;;;;;;;;5113933;28;20482;-78
2021/08/27 04:13:34;;;;;;;2.63;2.03;;;;;;;;;;5096903;28;20445;-79
2021/08/27 04:16:01;;;;;;;5.13;2.83;;;;;;;;;;5114533;28;20441;-79
2021/08/27 04:18:29;;;;;;;4.30;3.40;;;;;;;;;;5110923;28;20440;-79
2021/08/27 04:20:56;;;;;;;6.37;2.40;;;;;;;;;;5104022;28;20447;-79
2021/08/27 04:23:25;;;;;;;6.40;2.77;;;;;;;;;;5108862;28;20438;-79
2021/08/27 04:25:52;;;;;;;4.23;2.60;;;;;;;;;;5111984;28;20468;-79
2021/08/27 04:28:19;;;;;;;7.80;2.37;;;;;;;;;;5112092;28;20485;-79
2021/08/27 04:30:46;;;;;;;4.23;2.43;;;;;;;;;;5094445;28;20818;-79
2021/08/27 04:33:14;;;;;;;4.50;2.27;;;;;;;;;;5113568;28;20794;-78
2021/08/27 04:35:41;;;;;;;4.37;2.50;;;;;;;;;;5114140;28;20462;-79
2021/08/27 04:38:08;;;;;;;8.63;2.50;;;;;;;;;;5114281;28;20437;-79
2021/08/27 04:40:37;;;;;;;5.37;2.57;;;;;;;;;;5110340;28;20811;-78
2021/08/27 04:43:04;;;;;;;7.00;2.80;;;;;;;;;;5103297;28;20788;-79
2021/08/27 04:45:31;;;;;;;4.77;2.50;;;;;;;;;;5093671;28;20527;-79
2021/08/27 04:47:58;;;;;;;4.80;2.20;;;;;;;;;;5091438;28;20443;-79
2021/08/27 04:50:25;;;;;;;6.33;2.53;;;;;;;;;;5091890;28;20459;-78
2021/08/27 04:52:54;;;;;;;4.53;2.43;;;;;;;;;;5091746;28;20451;-79
2021/08/27 04:55:22;;;;;;;3.70;2.20;;;;;;;;;;5112703;28;20450;-79
2021/08/27 04:57:51;;;;;;;3.87;2.40;;;;;;;;;;5114385;28;20797;-80
2021/08/27 05:00:18;;;;;;;4.30;2.37;;;;;;;;;;5113955;28;20983;-79
2021/08/27 05:02:45;;;;;;;5.60;2.07;;;;;;;;;;5109714;28;20462;-79
2021/08/27 05:05:26;;;;;;;5.67;2.30;;;;;;;;;;5102901;28;20437;-81
2021/08/27 05:08:08;;;;;;;4.53;2.60;;;;;;;;;;5114495;28;20524;-79
2021/08/27 05:10:35;;;;;;;6.60;2.50;;;;;;;;;;5115862;28;20470;-79
2021/08/27 05:13:03;;;;;;;4.33;1.90;;;;;;;;;;5116061;28;20449;-80
2021/08/27 05:15:39;;;;;;;4.57;2.37;;;;;;;;;;5115919;28;20457;-79
2021/08/27 05:18:09;;;;;;;7.80;2.30;;;;;;;;;;5118162;28;20949;-78
2021/08/27 05:20:36;;;;;;;8.70;2.60;;;;;;;;;;5117966;28;20508;-78
2021/08/27 05:23:04;;;;;;;6.30;2.50;;;;;;;;;;5100079;28;20441;-80
2021/08/27 05:25:31;;;;;;;4.13;2.40;;;;;;;;;;5110596;28;20435;-80
2021/08/27 05:27:58;;;;;;;6.87;2.57;;;;;;;;;;5104804;28;20866;-80
2021/08/27 05:30:30;;;;;;;4.23;2.30;;;;;;;;;;5114710;28;20493;-79
2021/08/27 05:32:57;;;;;;;7.47;2.47;;;;;;;;;;5115127;28;20445;-79
2021/08/27 05:35:34;;;;;;;4.60;2.03;;;;;;;;;;5115595;28;20439;-80
2021/08/27 05:38:01;;;;;;;4.33;2.00;;;;;;;;;;5116189;28;20858;-80
2021/08/27 05:40:29;;;;;;;9.33;3.07;;;;;;;;;;5117527;28;20470;-80
2021/08/27 05:42:56;;;;;;;5.13;2.60;;;;;;;;;;5117548;28;20477;-79
2021/08/27 05:45:23;;;;;;;8.03;3.33;;;;;;;;;;5117576;28;20990;-78
2021/08/27 05:47:52;;;;;;;5.73;3.40;;;;;;;;;;5109133;28;20426;-78
2021/08/27 05:50:19;;;;;;;12.33;3.03;;;;;;;;;;5105388;28;20474;-79
2021/08/27 05:52:46;;;;;;;5.00;2.50;;;;;;;;;;5113622;28;20439;-78
2021/08/27 05:55:17;;;;;;;9.47;2.47;;;;;;;;;;5105766;28;20446;-78
2021/08/27 05:57:44;;;;;;;6.33;2.40;;;;;;;;;;5094299;28;20940;-79
2021/08/27 06:00:12;;;;;;;8.90;2.63;;;;;;;;;;5104231;28;20988;-80
2021/08/27 06:02:42;;;;;;;9.97;3.13;;;;;;;;;;5101978;28;20931;-79
2021/08/27 06:05:11;;;;;;;4.17;2.20;;;;;;;;;;5110413;28;20474;-78
2021/08/27 06:07:38;;;;;;;2.97;2.20;;;;;;;;;;5114733;28;20449;-79
2021/08/27 06:10:08;;;;;;;4.83;2.67;;;;;;;;;;5113706;28;20569;-80
2021/08/27 06:12:35;;;;;;;6.80;2.70;;;;;;;;;;5114715;28;20435;-79
2021/08/27 06:15:02;;;;;;;9.50;3.03;;;;;;;;;;5110610;28;20450;-79
2021/08/27 06:17:29;;;;;;;8.50;3.00;;;;;;;;;;5102973;28;20437;-79
2021/08/27 06:19:57;;;;;;;4.80;2.30;;;;;;;;;;5110497;28;20511;-79
2021/08/27 06:22:25;;;;;;;4.17;2.63;;;;;;;;;;5098420;28;20984;-78
2021/08/27 06:24:52;;;;;;;6.70;2.33;;;;;;;;;;5102121;28;20424;-79
2021/08/27 06:27:20;;;;;;;4.40;2.70;;;;;;;;;;5097246;28;20807;-79
2021/08/27 06:29:47;;;;;;;8.87;3.00;;;;;;;;;;5094204;28;20860;-80
2021/08/27 06:32:14;;;;;;;10.93;2.83;;;;;;;;;;5094004;28;20481;-80
2021/08/27 06:34:41;;;;;;;6.70;3.27;;;;;;;;;;5099156;28;20455;-78
2021/08/27 06:37:09;;;;;;;9.27;3.20;;;;;;;;;;5115624;28;20472;-79
2021/08/27 06:39:37;;;;;;;5.27;2.70;;;;;;;;;;5116765;28;20540;-78
2021/08/27 06:42:05;;;;;;;5.80;2.90;;;;;;;;;;5116482;28;20558;-79
2021/08/27 06:44:32;;;;;;;5.57;2.70;;;;;;;;;;5113117;28;20442;-80
2021/08/27 06:46:59;;;;;;;8.23;2.70;;;;;;;;;;5101581;28;20787;-79
2021/08/27 06:49:26;;;;;;;7.33;2.73;;;;;;;;;;5098059;28;20489;-79
2021/08/27 06:51:54;;;;;;;4.17;2.67;;;;;;;;;;5093464;28;20828;-80
2021/08/27 06:54:21;;;;;;;5.63;2.40;;;;;;;;;;5093413;28;20446;-82
2021/08/27 06:56:49;;;;;;;5.97;2.70;;;;;;;;;;5093956;28;20470;-80
2021/08/27 06:59:16;;;;;;;4.53;3.03;;;;;;;;;;5109680;28;20472;-79
2021/08/27 07:01:44;;;;;;;6.30;2.77;;;;;;;;;;5115998;28;20472;-80
2021/08/27 07:04:11;;;;;;;5.43;2.87;;;;;;;;;;5115878;28;20441;-81
2021/08/27 07:06:38;;;;;;;7.27;2.10;;;;;;;;;;5115747;28;20451;-80
2021/08/27 07:09:05;;;;;;;11.10;2.63;;;;;;;;;;5103287;28;20473;-81
2021/08/27 07:11:32;;;;;;;4.60;2.90;;;;;;;;;;5106383;28;20554;-80
2021/08/27 07:14:03;;;;;;;4.37;2.80;;;;;;;;;;5113120;28;20442;-79
2021/08/27 07:16:30;;;;;;;7.40;3.33;;;;;;;;;;5104858;28;21002;-80
2021/08/27 07:18:57;;;;;;;5.70;3.50;;;;;;;;;;5108958;28;20442;-80
2021/08/27 07:21:24;;;;;;;5.77;2.43;;;;;;;;;;5114231;28;20465;-79
2021/08/27 07:23:51;;;;;;;7.10;3.03;;;;;;;;;;5115552;28;20507;-79
2021/08/27 07:26:19;;;;;;;7.90;3.20;;;;;;;;;;5114730;28;20930;-79
2021/08/27 07:28:46;;;;;;;7.93;3.00;;;;;;;;;;5115307;28;21015;-82
2021/08/27 07:31:14;;;;;;;8.73;2.83;;;;;;;;;;5101639;28;20964;-79
2021/08/27 07:33:42;;;;;;;9.67;3.00;;;;;;;;;;5104404;28;20445;-79
2021/08/27 07:36:09;;;;;;;7.30;2.50;;;;;;;;;;5112543;28;20746;-79
2021/08/27 07:38:37;;;;;;;5.67;2.43;;;;;;;;;;5113173;28;20453;-78
2021/08/27 07:41:04;;;;;;;6.10;3.37;;;;;;;;;;5113367;28;20469;-79
2021/08/27 07:43:31;;;;;;;7.70;2.43;;;;;;;;;;5113882;28;20465;-80
2021/08/27 07:45:58;;;;;;;4.43;2.43;;;;;;;;;;5115109;28;20442;-76
2021/08/27 07:48:27;;;;;;;2.90;2.10;;;;;;;;;;5113968;28;20452;-80
2021/08/27 07:50:54;;;;;;;4.90;2.33;;;;;;;;;;5114972;28;20593;-81
2021/08/27 07:53:23;;;;;;;2.80;2.10;;;;;;;;;;5103090;28;20430;-78
2021/08/27 07:55:50;;;;;;;5.70;2.33;;;;;;;;;;5101443;28;20427;-79
2021/08/27 07:58:18;;;;;;;5.90;2.90;;;;;;;;;;5091668;28;20446;-80
2021/08/27 08:00:45;;;;;;;4.23;2.53;;;;;;;;;;5092268;28;20470;-78
2021/08/27 08:03:12;;;;;;;4.70;2.50;;;;;;;;;;5112679;28;20919;-79
2021/08/27 08:05:40;;;;;;;5.43;2.50;;;;;;;;;;5113378;28;20442;-80
2021/08/27 08:08:08;;;;;;;7.17;3.30;;;;;;;;;;5114653;28;20442;-81
2021/08/27 08:10:35;;;;;;;6.70;2.63;;;;;;;;;;5112393;28;20479;-79
2021/08/27 08:13:02;;;;;;;5.90;3.13;;;;;;;;;;5112253;28;20449;-79
2021/08/27 08:15:29;;;;;;;8.73;3.13;;;;;;;;;;5104843;28;20445;-80
2021/08/27 08:18:00;;;;;;;9.60;4.43;;;;;;;;;;5101174;28;20471;-78
2021/08/27 08:20:27;;;;;;;4.90;3.40;;;;;;;;;;5111539;28;20805;-78
2021/08/27 08:22:57;;;;;;;5.83;3.33;;;;;;;;;;5112215;28;20442;-79
2021/08/27 08:25:24;;;;;;;9.30;4.20;;;;;;;;;;5111595;28;20457;-78
2021/08/27 08:27:51;;;;;;;6.90;2.80;;;;;;;;;;5111382;28;20454;-79
2021/08/27 08:30:18;;;;;;;4.00;2.93;;;;;;;;;;5093479;28;20478;-78
2021/08/27 08:32:46;;;;;;;5.93;2.73;;;;;;;;;;5094096;28;20459;-77
2021/08/27 08:35:14;;;;;;;8.00;3.60;;;;;;;;;;5105478;28;20802;-79
2021/08/27 08:37:41;;;;;;;6.60;3.40;;;;;;;;;;5081918;28;20465;-80
2021/08/27 08:40:13;;;;;;;7.90;3.60;;;;;;;;;;5103755;28;20518;-79
2021/08/27 08:42:41;;;;;;;9.53;3.60;;;;;;;;;;5091096;28;20501;-79
2021/08/27 08:45:08;;;;;;;4.87;2.70;;;;;;;;;;5091568;28;20538;-82
2021/08/27 08:47:39;;;;;;;8.20;3.80;;;;;;;;;;5097634;28;20417;-78
2021/08/27 08:50:06;;;;;;;7.23;2.87;;;;;;;;;;5112202;28;21066;-79
2021/08/27 08:52:34;;;;;;;7.23;3.63;;;;;;;;;;5114108;28;20534;-78
2021/08/27 08:55:01;;;;;;;6.97;2.77;;;;;;;;;;5114015;28;20736;-80
2021/08/27 08:57:30;;;;;;;5.07;2.90;;;;;;;;;;5114189;28;20442;-84
2021/08/27 08:59:57;;;;;;;4.73;2.80;;;;;;;;;;5107246;28;20824;-84
2021/08/27 09:02:24;;;;;;;3.63;2.80;;;;;;;;;;5101583;28;20420;-83
2021/08/27 09:04:51;;;;;;;6.73;3.37;;;;;;;;;;5092022;28;20934;-80
2021/08/27 09:07:19;;;;;;;4.67;2.60;;;;;;;;;;5091153;28;20440;-80
2021/08/27 09:09:46;;;;;;;8.60;3.50;;;;;;;;;;5091100;28;21185;-80
2021/08/27 09:12:18;;;;;;;4.97;3.07;;;;;;;;;;5092809;28;20444;-80
2021/08/27 09:14:55;;;;;;;10.10;3.27;;;;;;;;;;5096194;28;20446;-82
2021/08/27 09:17:28;;;;;;;4.50;2.77;;;;;;;;;;5095912;28;20438;-78
2021/08/27 09:19:55;;;;;;;7.47;2.70;;;;;;;;;;5095662;28;20779;-81
2021/08/27 09:22:23;;;;;;;3.70;2.77;;;;;;;;;;5108909;28;20513;-78
2021/08/27 09:25:05;;;;;;;7.43;2.70;;;;;;;;;;5100453;28;20439;-77
2021/08/27 09:27:35;;;;;;;6.00;2.50;;;;;;;;;;5110362;28;20808;-79
2021/08/27 09:30:09;;;;;;;3.93;2.40;;;;;;;;;;5111671;28;21017;-81
2021/08/27 09:32:36;;;;;;;5.17;2.37;;;;;;;;;;5093369;28;20451;-79
2021/08/27 09:35:07;;;;;;;6.77;2.27;;;;;;;;;;5110732;28;20987;-77
2021/08/27 09:37:38;;;;;;;3.97;2.10;;;;;;;;;;5112831;28;20440;-79
2021/08/27 09:40:06;;;;;;;5.57;2.33;;;;;;;;;;5113759;28;20948;-79
2021/08/27 09:42:38;;;;;;;6.50;2.50;;;;;;;;;;5113521;28;20825;-79
2021/08/27 09:45:07;;;;;;;5.30;2.10;;;;;;;;;;5105441;28;20410;-82
2021/08/27 09:47:34;;;;;;;3.50;2.10;;;;;;;;;;5103489;28;20786;-79
2021/08/27 09:50:16;;;;;;;3.70;2.37;;;;;;;;;;5098181;28;20809;-81
2021/08/27 09:52:52;;;;;;;4.67;2.40;;;;;;;;;;5079022;28;20481;-82
2021/08/27 09:55:19;;;;;;;4.60;1.90;;;;;;;;;;5094873;28;20414;-82
2021/08/27 09:57:46;;;;;;;3.00;2.50;;;;;;;;;;5101230;28;20461;-82
2021/08/27 10:00:19;;;;;;;5.40;2.00;;;;;;;;;;5117312;28;20462;-82
2021/08/27 10:02:47;;;;;;;5.40;2.30;;;;;;;;;;5112406;28;20415;-81
2021/08/27 10:05:15;;;;;;;4.40;2.23;;;;;;;;;;5099656;28;20432;-81
2021/08/27 10:07:42;;;;;;;4.00;2.40;;;;;;;;;;5100850;28;20474;-81
2021/08/27 10:10:10;;;;;;;4.80;2.07;;;;;;;;;;5102769;28;20479;-80
2021/08/27 10:12:40;;;;;;;2.97;1.83;;;;;;;;;;5114399;28;20830;-80
2021/08/27 10:15:08;;;;;;;5.23;1.90;;;;;;;;;;5114131;28;20927;-81
2021/08/27 10:17:38;;;;;;;3.47;2.07;;;;;;;;;;5114629;28;20941;-80
2021/08/27 10:20:05;;;;;;;4.60;2.00;;;;;;;;;;5114235;28;20435;-82
2021/08/27 10:22:32;;;;;;;3.13;2.00;;;;;;;;;;5117287;28;20443;-82
2021/08/27 10:25:05;;;;;;;4.53;2.40;;;;;;;;;;5116993;28;20412;-82
2021/08/27 10:27:32;;;;;;;6.33;2.00;;;;;;;;;;5116890;28;20451;-83
2021/08/27 10:30:00;;;;;;;3.10;1.93;;;;;;;;;;5110046;28;21177;-83
2021/08/27 10:32:42;;;;;;;4.10;2.23;;;;;;;;;;5105167;28;20441;-84
2021/08/27 10:35:11;;;;;;;7.27;2.40;;;;;;;;;;5094294;28;20429;-88
2021/08/27 10:37:42;;;;;;;2.70;1.93;;;;;;;;;;5093942;28;20471;-87
2021/08/27 10:40:25;;;;;;;3.10;2.00;;;;;;;;;;5094482;28;20462;-85
2021/08/27 10:42:55;;;;;;;3.83;1.90;;;;;;;;;;5090079;28;20933;-86
2021/08/27 10:45:37;;;;;;;3.10;2.10;;;;;;;;;;5120014;28;20415;-86
2021/08/27 10:48:12;;;;;;;4.50;1.70;;;;;;;;;;5103298;28;20420;-83
2021/08/27 10:50:42;;;;;;;5.30;2.10;;;;;;;;;;5116703;28;20488;-80
2021/08/27 10:53:24;;;;;;;3.30;1.80;;;;;;;;;;5100268;28;20493;-83
2021/08/27 10:55:51;;;;;;;4.67;2.50;;;;;;;;;;5103909;28;20922;-79
2021/08/27 10:58:21;;;;;;;5.60;2.10;;;;;;;;;;5092807;28;20686;-79
2021/08/27 11:00:52;;;;;;;3.60;2.07;;;;;;;;;;5109551;28;20503;-81
2021/08/27 11:03:20;;;;;;;3.70;2.30;;;;;;;;;;5109866;28;20416;-81
2021/08/27 11:05:50;;;;;;;4.20;2.20;;;;;;;;;;5105965;28;20795;-79
2021/08/27 11:08:17;;;;;;;3.63;2.00;;;;;;;;;;5075871;28;20458;-81
2021/08/27 11:10:45;;;;;;;3.97;2.07;;;;;;;;;;5080253;28;20498;-79
2021/08/27 11:13:15;;;;;;;3.83;2.00;;;;;;;;;;5091027;28;20454;-80
2021/08/27 11:15:42;;;;;;;7.13;2.30;;;;;;;;;;5091629;28;20457;-81
2021/08/27 11:18:21;;;;;;;2.70;1.83;;;;;;;;;;5107524;28;20427;-81
2021/08/27 11:20:50;;;;;;;6.00;2.30;;;;;;;;;;5097148;28;20456;-81
2021/08/27 11:23:18;;;;;;;4.40;1.80;;;;;;;;;;5092998;28;20437;-83
2021/08/27 11:25:59;;;;;;;4.13;2.00;;;;;;;;;;5072102;28;20452;-83
2021/08/27 11:28:27;;;;;;;5.60;2.00;;;;;;;;;;5089657;28;20494;-80
2021/08/27 11:31:02;;;;;;;4.20;2.20;;;;;;;;;;5090438;28;20555;-80
2021/08/27 11:33:43;;;;;;;3.80;2.10;;;;;;;;;;5073132;28;20541;-85
2021/08/27 11:36:12;;;;;;;3.33;1.70;;;;;;;;;;5070155;28;20445;-81
2021/08/27 11:38:39;;;;;;;4.83;1.80;;;;;;;;;;5070586;28;20847;-81
2021/08/27 11:41:07;;;;;;;4.93;1.97;;;;;;;;;;5078061;28;20475;-79
2021/08/27 11:43:35;;;;;;;5.53;1.90;;;;;;;;;;5079648;28;20439;-81
2021/08/27 11:46:03;;;;;;;8.47;2.20;;;;;;;;;;5068511;28;20537;-81
2021/08/27 11:48:35;;;;;;;3.43;1.63;;;;;;;;;;5069167;28;20422;-82
2021/08/27 11:51:03;;;;;;;3.80;1.57;;;;;;;;;;5072028;28;20479;-82
2021/08/27 11:53:32;;;;;;;7.00;1.90;;;;;;;;;;5090246;28;20455;-82
2021/08/27 11:55:59;;;;;;;6.17;1.83;;;;;;;;;;5092907;28;20440;-80
2021/08/27 11:58:41;;;;;;;3.67;2.30;;;;;;;;;;5092398;28;20443;-81
2021/08/27 12:01:09;;;;;;;2.03;1.57;;;;;;;;;;5088732;28;20994;-82
2021/08/27 12:03:36;;;;;;;3.40;1.63;;;;;;;;;;5078116;28;20428;-82
2021/08/27 12:06:18;;;;;;;3.80;2.10;;;;;;;;;;5079410;28;20450;-83
2021/08/27 12:08:48;;;;;;;7.20;2.20;;;;;;;;;;5071813;28;20439;-80
2021/08/27 12:11:16;;;;;;;4.03;1.90;;;;;;;;;;5071988;28;20465;-80
2021/08/27 12:13:53;;;;;;;2.90;1.57;;;;;;;;;;5071856;28;20451;-83
2021/08/27 12:16:20;;;;;;;3.77;2.00;;;;;;;;;;5087012;28;20429;-83
2021/08/27 12:18:51;;;;;;;4.27;2.20;;;;;;;;;;5094474;28;20445;-82
2021/08/27 12:21:20;;;;;;;3.47;1.70;;;;;;;;;;5093437;28;20444;-82
2021/08/27 12:24:01;;;;;;;5.53;2.37;;;;;;;;;;5092541;28;20414;-80
2021/08/27 12:26:30;;;;;;;4.13;1.60;;;;;;;;;;5079287;28;20898;-83
2021/08/27 12:28:58;;;;;;;4.50;2.00;;;;;;;;;;5076549;28;20440;-82
2021/08/27 12:31:36;;;;;;;2.90;1.80;;;;;;;;;;5072028;28;20480;-82
2021/08/27 12:34:03;;;;;;;2.90;1.63;;;;;;;;;;5071494;28;20516;-85
2021/08/27 12:36:35;;;;;;;5.20;2.63;;;;;;;;;;5087796;28;20471;-79
2021/08/27 12:39:04;;;;;;;4.30;2.33;;;;;;;;;;5112830;28;20458;-86
2021/08/27 12:41:31;;;;;;;4.73;2.50;;;;;;;;;;5109647;28;20811;-84
2021/08/27 12:44:08;;;;;;;5.97;2.47;;;;;;;;;;5093661;28;20529;-82
2021/08/27 12:46:35;;;;;;;3.57;2.50;;;;;;;;;;5095834;28;20448;-85
2021/08/27 12:49:17;;;;;;;4.97;2.10;;;;;;;;;;5100204;28;20805;-84
2021/08/27 12:51:45;;;;;;;2.30;1.90;;;;;;;;;;5077084;28;20460;-82
2021/08/27 12:54:14;;;;;;;6.47;3.57;;;;;;;;;;5100031;28;20454;-82
2021/08/27 12:56:41;;;;;;;5.60;2.67;;;;;;;;;;5093822;28;20899;-86
2021/08/27 12:59:16;;;;;;;6.57;2.50;;;;;;;;;;5111679;28;20799;-78
